Time;durP1;ratioP1;P1;durP2;ratioP2;P2;SDS_P1;SDS_P2;PMS_P1;PMS_P2;Temp;Humidity;BMP_temperature;BMP_pressure;BME280_temperature;BME280_humidity;BME280_pressure;Samples;Min_cycle;Max_cycle;Signal;HPM_P1;HPM_P2
2023/09/05 00:01:03;;;;;;;1999.90;999.90;;;22.70;99.90;;;;;;5083465;28;20027;-80
2023/09/05 00:03:31;;;;;;;1999.90;999.90;;;22.60;99.90;;;;;;5092545;28;20028;-80
2023/09/05 00:06:10;;;;;;;1999.90;999.90;;;22.50;99.90;;;;;;5094862;28;20067;-80
2023/09/05 00:08:39;;;;;;;1999.90;999.90;;;22.50;99.90;;;;;;5086593;28;20020;-74
2023/09/05 00:11:04;;;;;;;1999.90;999.90;;;22.40;99.90;;;;;;5074309;28;20059;-73
2023/09/05 00:13:30;;;;;;;1999.90;999.90;;;22.40;99.90;;;;;;5074660;28;20052;-74
2023/09/05 00:15:57;;;;;;;1999.90;999.90;;;22.40;99.90;;;;;;5074441;28;20028;-79
2023/09/05 00:18:23;;;;;;;1999.90;999.90;;;22.50;99.90;;;;;;5074552;28;20024;-79
2023/09/05 00:20:54;;;;;;;1999.90;999.90;;;22.50;99.90;;;;;;5074062;28;20070;-80
2023/09/05 00:23:21;;;;;;;1999.90;999.90;;;22.60;99.90;;;;;;5073016;28;20025;-74
2023/09/05 00:25:47;;;;;;;1999.90;999.90;;;22.60;99.90;;;;;;5073716;28;20079;-80
2023/09/05 00:28:13;;;;;;;1999.90;999.90;;;22.50;99.90;;;;;;5074076;28;20032;-74
2023/09/05 00:30:39;;;;;;;1999.90;999.90;;;22.60;99.90;;;;;;5074196;28;20013;-73
2023/09/05 00:33:05;;;;;;;1999.90;999.90;;;22.60;99.90;;;;;;5073781;28;20036;-73
2023/09/05 00:35:30;;;;;;;1999.90;999.90;;;22.70;99.90;;;;;;5075499;28;20429;-74
2023/09/05 00:37:58;;;;;;;1999.90;999.90;;;22.60;99.90;;;;;;5093985;28;20020;-73
2023/09/05 00:40:26;;;;;;;1999.90;999.90;;;22.50;99.90;;;;;;5094298;28;20015;-80
2023/09/05 00:42:52;;;;;;;1999.90;999.90;;;22.50;99.90;;;;;;5094360;28;20043;-80
2023/09/05 00:45:18;;;;;;;1999.90;999.90;;;22.40;99.90;;;;;;5094663;28;20071;-80
2023/09/05 00:47:47;;;;;;;1999.90;999.90;;;22.40;99.90;;;;;;5091132;28;20112;-73
2023/09/05 00:50:18;;;;;;;1999.90;999.90;;;22.30;99.90;;;;;;5081177;28;20767;-74
2023/09/05 00:52:44;;;;;;;1999.90;999.90;;;22.30;99.90;;;;;;5093919;28;20028;-80
2023/09/05 00:55:11;;;;;;;1999.90;999.90;;;22.20;99.90;;;;;;5096160;28;20084;-81
2023/09/05 00:57:38;;;;;;;1999.90;999.90;;;22.20;99.90;;;;;;5096963;28;20020;-73
2023/09/05 01:00:05;;;;;;;1999.90;999.90;;;22.20;99.90;;;;;;5089599;28;20024;-80
2023/09/05 01:02:31;;;;;;;1999.90;999.90;;;22.20;99.90;;;;;;5082681;28;20028;-73
2023/09/05 01:04:57;;;;;;;1999.90;999.90;;;22.20;99.90;;;;;;5073542;28;20427;-80
2023/09/05 01:07:32;;;;;;;1999.90;999.90;;;22.20;99.90;;;;;;5073476;28;20376;-80
2023/09/05 01:10:14;;;;;;;1999.90;999.90;;;22.10;99.90;;;;;;5073529;28;20039;-80
2023/09/05 01:12:40;;;;;;;1999.90;999.90;;;22.00;99.90;;;;;;5073691;28;20029;-80
2023/09/05 01:15:07;;;;;;;1999.90;999.90;;;22.00;99.90;;;;;;5073407;28;20021;-73
2023/09/05 01:17:33;;;;;;;1999.90;999.90;;;21.90;99.90;;;;;;5073170;28;20021;-80
2023/09/05 01:20:03;;;;;;;1999.90;999.90;;;21.90;99.90;;;;;;5073776;28;20078;-80
2023/09/05 01:22:39;;;;;;;1999.90;999.90;;;21.80;99.90;;;;;;5073268;28;20021;-80
2023/09/05 01:25:06;;;;;;;1999.90;999.90;;;21.80;99.90;;;;;;5073218;28;20047;-80
2023/09/05 01:27:32;;;;;;;1999.90;999.90;;;21.80;99.90;;;;;;5078743;28;20021;-73
2023/09/05 01:29:58;;;;;;;1999.90;999.90;;;21.80;99.90;;;;;;5091451;28;20047;-73
2023/09/05 01:32:24;;;;;;;1999.90;999.90;;;21.70;99.90;;;;;;5093148;28;20043;-73
2023/09/05 01:34:49;;;;;;;1999.90;999.90;;;21.70;99.90;;;;;;5093383;28;20073;-80
2023/09/05 01:37:15;;;;;;;1999.90;999.90;;;21.70;99.90;;;;;;5076614;28;20017;-80
2023/09/05 01:39:44;;;;;;;1999.90;999.90;;;21.70;99.90;;;;;;5073276;28;20463;-73
2023/09/05 01:42:10;;;;;;;1999.90;999.90;;;21.70;99.90;;;;;;5073223;28;20396;-73
2023/09/05 01:44:36;;;;;;;1999.90;999.90;;;21.70;99.90;;;;;;5072905;28;20024;-80
2023/09/05 01:47:03;;;;;;;1999.90;999.90;;;21.70;99.90;;;;;;5073091;28;20021;-80
2023/09/05 01:49:28;;;;;;;1999.90;999.90;;;21.70;99.90;;;;;;5079435;28;20075;-80
2023/09/05 01:51:54;;;;;;;1999.90;999.90;;;21.60;99.90;;;;;;5091513;28;20036;-80
2023/09/05 01:54:20;;;;;;;1999.90;999.90;;;21.50;99.90;;;;;;5092768;28;20029;-73
2023/09/05 01:56:45;;;;;;;1999.90;999.90;;;21.50;99.90;;;;;;5093198;28;20390;-80
2023/09/05 01:59:12;;;;;;;1999.90;999.90;;;21.40;99.90;;;;;;5091732;28;20070;-80
2023/09/05 02:01:38;;;;;;;1999.90;999.90;;;21.40;99.90;;;;;;5079663;28;20039;-80
2023/09/05 02:04:03;;;;;;;1999.90;999.90;;;21.40;99.90;;;;;;5093086;28;20052;-80
2023/09/05 02:06:29;;;;;;;1999.90;999.90;;;21.40;99.90;;;;;;5083349;28;20035;-73
2023/09/05 02:08:54;;;;;;;1999.90;999.90;;;21.40;99.90;;;;;;5072797;28;20455;-74
2023/09/05 02:11:20;;;;;;;1999.90;999.90;;;21.30;99.90;;;;;;5072858;28;20078;-73
2023/09/05 02:13:46;;;;;;;1999.90;999.90;;;21.30;99.90;;;;;;5072817;28;20017;-73
2023/09/05 02:16:18;;;;;;;1999.90;999.90;;;21.30;99.90;;;;;;5073345;28;20071;-73
2023/09/05 02:18:48;;;;;;;1999.90;999.90;;;21.40;99.90;;;;;;5072857;28;20020;-73
2023/09/05 02:21:15;;;;;;;1999.90;999.90;;;21.40;99.90;;;;;;5052680;28;20037;-73
2023/09/05 02:23:41;;;;;;;1999.90;999.90;;;21.30;99.90;;;;;;5068026;28;20024;-80
2023/09/05 02:26:07;;;;;;;1999.90;999.90;;;21.40;99.90;;;;;;5093186;28;20494;-80
2023/09/05 02:28:32;;;;;;;1999.90;999.90;;;21.40;99.90;;;;;;5093115;28;20062;-73
2023/09/05 02:30:58;;;;;;;1999.90;999.90;;;21.40;99.90;;;;;;5092895;28;20028;-80
2023/09/05 02:33:23;;;;;;;1999.90;999.90;;;21.40;99.90;;;;;;5092662;28;20028;-73
2023/09/05 02:35:49;;;;;;;1999.90;999.90;;;21.40;99.90;;;;;;5092448;28;20032;-79
2023/09/05 02:38:15;;;;;;;1999.90;999.90;;;21.30;99.90;;;;;;5092922;28;20020;-80
2023/09/05 02:40:45;;;;;;;1999.90;999.90;;;21.20;99.90;;;;;;5092798;28;20028;-80
2023/09/05 02:43:11;;;;;;;1999.90;999.90;;;21.10;99.90;;;;;;5092994;28;20021;-79
2023/09/05 02:45:36;;;;;;;1999.90;999.90;;;21.00;99.90;;;;;;5092663;28;20024;-73
2023/09/05 02:48:02;;;;;;;1999.90;999.90;;;20.90;99.90;;;;;;5087638;28;20028;-73
2023/09/05 02:50:27;;;;;;;1999.90;999.90;;;20.80;99.90;;;;;;5083458;28;20027;-73
2023/09/05 02:52:53;;;;;;;1999.90;999.90;;;20.80;99.90;;;;;;5092573;28;20447;-79
2023/09/05 02:55:19;;;;;;;1999.90;999.90;;;20.80;99.90;;;;;;5092821;28;20024;-80
2023/09/05 02:57:44;;;;;;;1999.90;999.90;;;20.80;99.90;;;;;;5092779;28;20027;-73
2023/09/05 03:00:11;;;;;;;1999.90;999.90;;;20.80;99.90;;;;;;5089489;28;20035;-73
2023/09/05 03:02:40;;;;;;;1999.90;999.90;;;20.70;99.90;;;;;;5087420;28;20024;-80
2023/09/05 03:05:06;;;;;;;1999.90;999.90;;;20.70;99.90;;;;;;5096070;28;20047;-80
2023/09/05 03:07:32;;;;;;;1999.90;999.90;;;20.80;99.90;;;;;;5096102;28;20008;-73
2023/09/05 03:09:57;;;;;;;1999.90;999.90;;;20.70;99.90;;;;;;5076040;28;20433;-80
2023/09/05 03:12:23;;;;;;;1999.90;999.90;;;20.60;99.90;;;;;;5075381;28;20028;-73
2023/09/05 03:14:49;;;;;;;1999.90;999.90;;;20.60;99.90;;;;;;5075431;28;20024;-79
2023/09/05 03:17:14;;;;;;;1999.90;999.90;;;20.60;99.90;;;;;;5076236;28;20024;-73
2023/09/05 03:19:40;;;;;;;1999.90;999.90;;;20.60;99.90;;;;;;5075837;28;20025;-73
2023/09/05 03:22:06;;;;;;;1999.90;999.90;;;20.50;99.90;;;;;;5074754;28;20143;-73
2023/09/05 03:24:33;;;;;;;1999.90;999.90;;;20.50;99.90;;;;;;5075464;28;20063;-73
2023/09/05 03:26:59;;;;;;;1999.90;999.90;;;20.50;99.90;;;;;;5075889;28;20024;-73
2023/09/05 03:29:24;;;;;;;1999.90;999.90;;;20.50;99.90;;;;;;5075504;28;20356;-80
2023/09/05 03:31:52;;;;;;;1999.90;999.90;;;20.50;99.90;;;;;;5075278;28;20091;-80
2023/09/05 03:34:17;;;;;;;1999.90;999.90;;;20.40;99.90;;;;;;5075459;28;20430;-79
2023/09/05 03:36:43;;;;;;;1999.90;999.90;;;20.40;99.90;;;;;;5084094;28;20016;-73
2023/09/05 03:39:09;;;;;;;1999.90;999.90;;;20.40;99.90;;;;;;5095844;28;20077;-73
2023/09/05 03:41:35;;;;;;;1999.90;999.90;;;20.40;99.90;;;;;;5094177;28;20458;-80
2023/09/05 03:44:00;;;;;;;1999.90;999.90;;;20.40;99.90;;;;;;5095591;28;20032;-73
2023/09/05 03:46:26;;;;;;;1999.90;999.90;;;20.30;99.90;;;;;;5095492;28;20047;-80
2023/09/05 03:48:53;;;;;;;1999.90;999.90;;;20.30;99.90;;;;;;5087820;28;20050;-80
2023/09/05 03:51:19;;;;;;;1999.90;999.90;;;20.20;99.90;;;;;;5088918;28;20012;-73
2023/09/05 03:53:45;;;;;;;1999.90;999.90;;;20.20;99.90;;;;;;5095248;28;20093;-80
2023/09/05 03:56:10;;;;;;;1999.90;999.90;;;20.20;99.90;;;;;;5095466;28;20475;-80
2023/09/05 03:58:38;;;;;;;1999.90;999.90;;;20.30;99.90;;;;;;5096206;28;20692;-81
2023/09/05 04:01:04;;;;;;;1999.90;999.90;;;20.40;99.90;;;;;;5089111;28;20035;-73
2023/09/05 04:03:33;;;;;;;1999.90;999.90;;;20.50;99.90;;;;;;5079381;28;20036;-73
2023/09/05 04:06:01;;;;;;;1999.90;999.90;;;20.50;99.90;;;;;;5074778;28;20028;-73
2023/09/05 04:08:27;;;;;;;1999.90;999.90;;;20.60;99.90;;;;;;5074711;28;20089;-73
2023/09/05 04:10:57;;;;;;;1999.90;999.90;;;20.60;99.90;;;;;;5073317;28;20095;-80
2023/09/05 04:13:22;;;;;;;1999.90;999.90;;;20.60;99.90;;;;;;5074708;28;20025;-80
2023/09/05 04:15:48;;;;;;;1999.90;999.90;;;20.50;99.90;;;;;;5075397;28;20028;-79
2023/09/05 04:18:14;;;;;;;1999.90;999.90;;;20.50;99.90;;;;;;5082996;28;20024;-73
2023/09/05 04:20:39;;;;;;;1999.90;999.90;;;20.50;99.90;;;;;;5094578;28;20028;-73
2023/09/05 04:23:05;;;;;;;1999.90;999.90;;;20.70;99.90;;;;;;5094588;28;20032;-80
2023/09/05 04:25:32;;;;;;;1999.90;999.90;;;20.70;99.90;;;;;;5094566;28;20057;-80
2023/09/05 04:27:58;;;;;;;1999.90;999.90;;;20.60;99.90;;;;;;5094925;28;20035;-80
2023/09/05 04:30:23;;;;;;;1999.90;999.90;;;20.50;99.90;;;;;;5088262;28;20032;-73
2023/09/05 04:32:49;;;;;;;1999.90;999.90;;;20.50;99.90;;;;;;5080945;28;20028;-73
2023/09/05 04:35:15;;;;;;;1999.90;999.90;;;20.50;99.90;;;;;;5074399;28;20048;-74
2023/09/05 04:37:40;;;;;;;1999.90;999.90;;;20.50;99.90;;;;;;5078556;28;20035;-79
2023/09/05 04:40:07;;;;;;;1999.90;999.90;;;20.40;99.90;;;;;;5074222;28;20025;-80
2023/09/05 04:42:33;;;;;;;1999.90;999.90;;;20.40;99.90;;;;;;5073477;28;20025;-73
2023/09/05 04:44:58;;;;;;;1999.90;999.90;;;20.40;99.90;;;;;;5073580;28;20020;-73
2023/09/05 04:47:29;;;;;;;1999.90;999.90;;;20.40;99.90;;;;;;5074201;28;20028;-79
2023/09/05 04:49:57;;;;;;;1999.90;999.90;;;20.40;99.90;;;;;;5080749;28;20025;-80
2023/09/05 04:52:26;;;;;;;1999.90;999.90;;;20.30;99.90;;;;;;5094040;28;20024;-73
2023/09/05 04:54:53;;;;;;;1999.90;999.90;;;20.30;99.90;;;;;;5094021;28;20024;-73
2023/09/05 04:57:19;;;;;;;1999.90;999.90;;;20.40;99.90;;;;;;5092580;28;20023;-73
2023/09/05 04:59:47;;;;;;;1999.90;999.90;;;20.40;99.90;;;;;;5089480;28;20024;-80
2023/09/05 05:02:13;;;;;;;1999.90;999.90;;;20.30;99.90;;;;;;5084456;28;20031;-80
2023/09/05 05:04:40;;;;;;;1999.90;999.90;;;20.30;99.90;;;;;;5093684;28;20048;-80
2023/09/05 05:07:06;;;;;;;1999.90;999.90;;;20.30;99.90;;;;;;5093332;28;20050;-74
2023/09/05 05:09:32;;;;;;;1999.90;999.90;;;20.30;99.90;;;;;;5077332;28;20031;-73
2023/09/05 05:11:59;;;;;;;1999.90;999.90;;;20.20;99.90;;;;;;5079596;28;20032;-73
2023/09/05 05:14:24;;;;;;;1999.90;999.90;;;20.30;99.90;;;;;;5077117;28;20063;-80
2023/09/05 05:16:50;;;;;;;1999.90;999.90;;;20.30;99.90;;;;;;5073308;28;20056;-80
2023/09/05 05:19:15;;;;;;;1999.90;999.90;;;20.30;99.90;;;;;;5079739;28;20024;-80
2023/09/05 05:21:41;;;;;;;1999.90;999.90;;;20.40;99.90;;;;;;5085870;28;20093;-73
2023/09/05 05:24:07;;;;;;;1999.90;999.90;;;20.40;99.90;;;;;;5088257;28;20404;-73
2023/09/05 05:26:33;;;;;;;1999.90;999.90;;;20.40;99.90;;;;;;5072905;28;20040;-80
2023/09/05 05:28:59;;;;;;;1999.90;999.90;;;20.40;99.90;;;;;;5073301;28;20078;-79
2023/09/05 05:31:26;;;;;;;1999.90;999.90;;;20.40;99.90;;;;;;5071131;28;20028;-80
2023/09/05 05:33:52;;;;;;;1999.90;999.90;;;20.30;99.90;;;;;;5072951;28;20017;-72
2023/09/05 05:36:18;;;;;;;1999.90;999.90;;;20.30;99.90;;;;;;5068778;28;20081;-73
2023/09/05 05:38:44;;;;;;;1999.90;999.90;;;20.30;99.90;;;;;;5061373;28;20020;-73
2023/09/05 05:41:10;;;;;;;1999.90;999.90;;;20.30;99.90;;;;;;5072521;28;20032;-74
2023/09/05 05:43:36;;;;;;;1999.90;999.90;;;20.30;99.90;;;;;;5072747;28;20056;-74
2023/09/05 05:46:02;;;;;;;1999.90;999.90;;;20.30;99.90;;;;;;5072323;28;20032;-80
2023/09/05 05:48:28;;;;;;;1999.90;999.90;;;20.30;99.90;;;;;;5078697;28;20036;-74
2023/09/05 05:50:55;;;;;;;1999.90;999.90;;;20.30;99.90;;;;;;5078027;28;20038;-74
2023/09/05 05:53:22;;;;;;;1999.90;999.90;;;20.30;99.90;;;;;;5080836;28;20025;-80
2023/09/05 05:55:47;;;;;;;1999.90;999.90;;;20.40;99.90;;;;;;5072783;28;20059;-78
2023/09/05 05:58:14;;;;;;;1999.90;999.90;;;20.40;99.90;;;;;;5082263;28;20487;-79
2023/09/05 06:00:50;;;;;;;1999.90;999.90;;;20.40;99.90;;;;;;5075887;28;20025;-73
2023/09/05 06:03:17;;;;;;;1999.90;999.90;;;20.40;99.90;;;;;;5077929;28;20502;-73
2023/09/05 06:05:43;;;;;;;1999.90;999.90;;;20.40;99.90;;;;;;5072131;28;20138;-80
2023/09/05 06:08:09;;;;;;;1999.90;999.90;;;20.40;99.90;;;;;;5072579;28;20013;-80
2023/09/05 06:10:35;;;;;;;1999.90;999.90;;;20.50;99.90;;;;;;5072684;28;20031;-80
2023/09/05 06:13:00;;;;;;;1999.90;999.90;;;20.40;99.90;;;;;;5070976;28;20448;-80
2023/09/05 06:15:26;;;;;;;1999.90;999.90;;;20.50;99.90;;;;;;5075982;28;20037;-74
2023/09/05 06:17:52;;;;;;;1999.90;999.90;;;20.50;99.90;;;;;;5072731;28;20039;-80
2023/09/05 06:20:17;;;;;;;1999.90;999.90;;;20.60;99.90;;;;;;5072284;28;20522;-80
2023/09/05 06:22:44;;;;;;;1999.90;999.90;;;20.60;99.90;;;;;;5071617;28;20029;-81
2023/09/05 06:25:10;;;;;;;1999.90;999.90;;;20.70;99.90;;;;;;5072110;28;20024;-80
2023/09/05 06:27:36;;;;;;;1999.90;999.90;;;20.80;99.90;;;;;;5071929;28;20025;-73
2023/09/05 06:30:03;;;;;;;1999.90;999.90;;;20.80;99.90;;;;;;5071838;28;20029;-80
2023/09/05 06:32:29;;;;;;;1999.90;999.90;;;20.90;99.90;;;;;;5071692;28;20483;-81
2023/09/05 06:34:55;;;;;;;1999.90;999.90;;;21.00;99.90;;;;;;5074464;28;20055;-80
2023/09/05 06:37:24;;;;;;;1999.90;999.90;;;21.10;99.90;;;;;;5085986;28;20028;-80
2023/09/05 06:39:50;;;;;;;1999.90;999.90;;;21.20;99.90;;;;;;5091417;28;20491;-73
2023/09/05 06:42:16;;;;;;;1999.90;999.90;;;21.20;99.90;;;;;;5075643;28;20032;-73
2023/09/05 06:44:43;;;;;;;1999.90;999.90;;;21.30;99.90;;;;;;5075724;28;20456;-81
2023/09/05 06:47:09;;;;;;;1999.90;999.90;;;21.40;99.90;;;;;;5079829;28;20391;-80
2023/09/05 06:49:35;;;;;;;1999.90;999.90;;;21.50;99.90;;;;;;5077536;28;20032;-81
2023/09/05 06:52:00;;;;;;;1999.90;999.90;;;21.50;99.90;;;;;;5085007;28;20043;-73
2023/09/05 06:54:26;;;;;;;1999.90;999.90;;;21.60;99.90;;;;;;5074394;28;20111;-73
2023/09/05 06:56:51;;;;;;;1999.90;999.90;;;21.70;99.90;;;;;;5075391;28;20036;-74
2023/09/05 06:59:17;;;;;;;1999.90;999.90;;;21.80;99.90;;;;;;5075874;28;20031;-74
2023/09/05 07:01:44;;;;;;;1999.90;999.90;;;21.90;99.90;;;;;;5079289;28;20429;-81
2023/09/05 07:04:09;;;;;;;1999.90;999.90;;;22.10;99.90;;;;;;5085672;28;20048;-82
2023/09/05 07:06:36;;;;;;;1999.90;999.90;;;22.30;99.90;;;;;;5084168;28;20506;-73
2023/09/05 07:09:02;;;;;;;1999.90;999.90;;;22.40;99.90;;;;;;5087813;28;20028;-81
2023/09/05 07:11:28;;;;;;;1999.90;999.90;;;22.50;99.90;;;;;;5076112;28;20032;-81
2023/09/05 07:13:54;;;;;;;1999.90;999.90;;;22.60;99.90;;;;;;5085476;28;20028;-81
2023/09/05 07:16:19;;;;;;;1999.90;999.90;;;22.70;99.90;;;;;;5074189;28;20021;-81
2023/09/05 07:18:45;;;;;;;1999.90;999.90;;;22.70;99.90;;;;;;5075777;28;20052;-73
2023/09/05 07:21:10;;;;;;;1999.90;999.90;;;22.80;99.90;;;;;;5073717;28;20726;-74
2023/09/05 07:23:36;;;;;;;1999.90;999.90;;;23.00;99.90;;;;;;5073842;28;20024;-80
2023/09/05 07:26:07;;;;;;;1999.90;999.90;;;23.20;99.90;;;;;;5073824;28;20043;-81
2023/09/05 07:28:33;;;;;;;1999.90;999.90;;;23.30;99.90;;;;;;5066347;28;20395;-81
2023/09/05 07:31:00;;;;;;;1999.90;999.90;;;23.50;99.90;;;;;;5073269;28;20032;-73
2023/09/05 07:33:26;;;;;;;1999.90;999.90;;;23.60;99.90;;;;;;5071245;28;20379;-74
2023/09/05 07:35:51;;;;;;;1999.90;999.90;;;23.80;99.90;;;;;;5071437;28;20047;-80
2023/09/05 07:38:20;;;;;;;1999.90;999.90;;;23.70;99.90;;;;;;5077760;28;20055;-80
2023/09/05 07:40:48;;;;;;;1999.90;999.90;;;23.90;99.90;;;;;;5074007;28;20025;-81
2023/09/05 07:43:13;;;;;;;1999.90;999.90;;;24.10;99.90;;;;;;5073202;28;20025;-80
2023/09/05 07:45:39;;;;;;;1999.90;999.90;;;24.40;99.90;;;;;;5077344;28;20055;-81
2023/09/05 07:48:08;;;;;;;1999.90;999.90;;;24.60;99.90;;;;;;5087535;28;20036;-80
2023/09/05 07:50:34;;;;;;;1999.90;999.90;;;24.90;99.90;;;;;;5081747;28;20020;-81
2023/09/05 07:53:00;;;;;;;1999.90;999.90;;;25.40;99.90;;;;;;5060359;28;21921;-80
2023/09/05 07:55:26;;;;;;;1999.90;999.90;;;26.20;99.90;;;;;;5077921;28;20117;-81
2023/09/05 07:57:52;;;;;;;1999.90;999.90;;;26.50;99.90;;;;;;5087318;28;20089;-74
2023/09/05 08:00:19;;;;;;;1999.90;999.90;;;27.00;99.90;;;;;;5084570;28;20107;-74
2023/09/05 08:02:45;;;;;;;1999.90;999.90;;;27.30;99.90;;;;;;5074870;28;20032;-81
2023/09/05 08:05:11;;;;;;;1999.90;999.90;;;27.60;99.90;;;;;;5085153;28;20059;-81
2023/09/05 08:07:38;;;;;;;1999.90;999.90;;;28.20;99.90;;;;;;5076667;28;20078;-72
2023/09/05 08:10:05;;;;;;;1999.90;999.90;;;28.50;99.90;;;;;;5076727;28;20048;-72
2023/09/05 08:12:31;;;;;;;1999.90;999.90;;;28.30;99.90;;;;;;5073241;28;20033;-71
2023/09/05 08:14:56;;;;;;;1999.90;999.90;;;28.60;99.90;;;;;;5079024;28;20029;-78
2023/09/05 08:17:22;;;;;;;1999.90;999.90;;;28.80;99.90;;;;;;5067928;28;20104;-71
2023/09/05 08:19:47;;;;;;;1999.90;999.90;;;28.50;99.90;;;;;;5072848;28;20028;-78
2023/09/05 08:22:13;;;;;;;1999.90;999.90;;;29.10;99.90;;;;;;5072535;28;20033;-78
2023/09/05 08:24:39;;;;;;;1999.90;999.90;;;29.70;99.90;;;;;;5086400;28;20028;-71
2023/09/05 08:27:05;;;;;;;1999.90;999.90;;;29.90;99.90;;;;;;5071179;28;20111;-71
2023/09/05 08:29:32;;;;;;;1999.90;999.90;;;30.30;99.90;;;;;;5074586;28;20016;-79
2023/09/05 08:31:58;;;;;;;1999.90;999.90;;;30.60;99.90;;;;;;5074522;28;20029;-78
2023/09/05 08:34:24;;;;;;;1999.90;999.90;;;31.00;99.90;;;;;;5075145;28;20025;-79
2023/09/05 08:36:50;;;;;;;1999.90;999.90;;;30.90;99.90;;;;;;5076125;28;20546;-72
2023/09/05 08:39:16;;;;;;;1999.90;999.90;;;31.50;99.90;;;;;;5073520;28;20025;-72
2023/09/05 08:41:43;;;;;;;1999.90;999.90;;;31.50;99.90;;;;;;5074219;28;20016;-79
2023/09/05 08:44:09;;;;;;;1999.90;999.90;;;31.40;99.90;;;;;;5073485;28;20029;-72
2023/09/05 08:46:38;;;;;;;1999.90;999.90;;;30.90;99.90;;;;;;5078294;28;20032;-78
2023/09/05 08:49:04;;;;;;;1999.90;999.90;;;31.20;99.90;;;;;;5081220;28;20031;-72
2023/09/05 08:51:33;;;;;;;1999.90;999.90;;;31.40;99.90;;;;;;5077539;28;20122;-72
2023/09/05 08:54:01;;;;;;;1999.90;999.90;;;32.00;99.50;;;;;;5079228;28;20029;-79
2023/09/05 08:56:27;;;;;;;1999.90;999.90;;;32.00;99.50;;;;;;5073186;28;20420;-79
2023/09/05 08:58:54;;;;;;;1999.90;999.90;;;32.40;99.50;;;;;;5071993;28;20048;-79
2023/09/05 09:01:20;;;;;;;1999.90;999.90;;;32.30;98.80;;;;;;5075527;28;20025;-80
2023/09/05 09:03:46;;;;;;;1999.90;999.90;;;32.30;98.80;;;;;;5073364;28;20036;-73
2023/09/05 09:06:12;;;;;;;1999.90;999.90;;;32.30;98.90;;;;;;5074618;28;20033;-80
2023/09/05 09:08:43;;;;;;;1999.90;999.90;;;32.80;98.70;;;;;;5078798;28;20032;-72
2023/09/05 09:11:09;;;;;;;1999.90;999.90;;;32.20;98.90;;;;;;5071604;28;20398;-80
2023/09/05 09:13:37;;;;;;;1999.90;999.90;;;32.70;98.90;;;;;;5087796;28;20032;-73
2023/09/05 09:16:03;;;;;;;1999.90;999.90;;;32.90;98.50;;;;;;5080344;28;20029;-72
2023/09/05 09:18:32;;;;;;;1999.90;999.90;;;32.80;98.30;;;;;;5071287;28;20031;-80
2023/09/05 09:21:02;;;;;;;1999.90;999.90;;;33.30;98.20;;;;;;5075418;28;20111;-80
2023/09/05 09:23:30;;;;;;;1999.90;999.90;;;32.90;98.30;;;;;;5084245;28;20027;-73
2023/09/05 09:25:57;;;;;;;1999.90;999.90;;;32.60;98.30;;;;;;5077011;28;20039;-79
2023/09/05 09:28:28;;;;;;;1999.90;999.90;;;32.90;98.50;;;;;;5077175;28;20505;-72
2023/09/05 09:31:01;;;;;;;1999.90;999.90;;;32.90;98.40;;;;;;5074559;28;20487;-73
2023/09/05 09:33:27;;;;;;;1999.90;999.90;;;33.10;97.80;;;;;;5071791;28;20050;-80
2023/09/05 09:36:07;;;;;;;1999.90;999.90;;;33.30;98.40;;;;;;5075423;28;20032;-80
2023/09/05 09:38:34;;;;;;;1999.90;999.90;;;33.90;97.50;;;;;;5081440;28;20023;-80
2023/09/05 09:41:01;;;;;;;1999.90;999.90;;;33.90;97.30;;;;;;5071876;28;20026;-72
2023/09/05 09:43:31;;;;;;;1999.90;999.90;;;33.00;98.00;;;;;;5076923;28;20062;-72
2023/09/05 09:46:04;;;;;;;1999.90;999.90;;;32.70;98.60;;;;;;5075294;28;20082;-80
2023/09/05 09:48:30;;;;;;;1999.90;999.90;;;32.60;99.10;;;;;;5068630;28;20526;-80
2023/09/05 09:50:58;;;;;;;1999.90;999.90;;;32.80;99.10;;;;;;5068279;28;20036;-79
2023/09/05 09:53:30;;;;;;;1999.90;999.90;;;32.90;98.70;;;;;;5071155;28;20551;-73
2023/09/05 09:55:56;;;;;;;;;;;32.70;99.40;;;;;;5073189;28;20021;-73
2023/09/05 09:58:24;;;;;;;1999.90;999.90;;;32.70;99.50;;;;;;5075051;28;19981;-80
2023/09/05 10:00:51;;;;;;;1999.90;999.90;;;32.60;99.70;;;;;;5074693;28;20086;-80
2023/09/05 10:03:17;;;;;;;1999.90;999.90;;;32.30;99.90;;;;;;5073519;28;20039;-78
2023/09/05 10:05:45;;;;;;;1999.90;999.90;;;32.00;99.90;;;;;;5072903;28;20462;-79
2023/09/05 10:08:11;;;;;;;1999.90;999.90;;;32.10;99.90;;;;;;5076543;28;20127;-73
2023/09/05 10:10:39;;;;;;;1999.90;999.90;;;31.80;99.90;;;;;;5083414;28;20024;-80
2023/09/05 10:13:07;;;;;;;1999.90;999.90;;;31.30;99.90;;;;;;5084150;28;20496;-78
2023/09/05 10:15:36;;;;;;;1999.90;999.90;;;31.50;99.90;;;;;;5078584;28;20600;-80
2023/09/05 10:18:02;;;;;;;1999.90;999.90;;;31.90;99.90;;;;;;5074259;28;20435;-80
2023/09/05 10:20:28;;;;;;;1999.90;999.90;;;31.90;99.90;;;;;;5083466;28;20020;-73
2023/09/05 10:22:54;;;;;;;1999.90;999.90;;;32.10;99.90;;;;;;5077007;28;20085;-73
2023/09/05 10:25:21;;;;;;;1999.90;999.90;;;31.70;99.90;;;;;;5088265;28;20017;-80
2023/09/05 10:27:46;;;;;;;1999.90;999.90;;;31.30;99.90;;;;;;5080110;28;20024;-80
2023/09/05 10:30:12;;;;;;;1999.90;999.90;;;31.00;99.90;;;;;;5082782;28;20029;-79
2023/09/05 10:32:44;;;;;;;1999.90;999.90;;;30.80;99.90;;;;;;5077872;28;20090;-73
2023/09/05 10:35:17;;;;;;;1999.90;999.90;;;31.10;99.90;;;;;;5083176;28;20031;-73
2023/09/05 10:37:43;;;;;;;;;;;31.50;99.90;;;;;;5082674;28;20137;-79
2023/09/05 10:40:10;;;;;;;1999.90;999.90;;;31.80;99.90;;;;;;5072719;28;19909;-79
2023/09/05 10:42:42;;;;;;;1999.90;999.90;;;32.20;99.90;;;;;;5077017;28;20518;-79
2023/09/05 10:45:23;;;;;;;;;;;32.00;99.90;;;;;;5081426;28;20036;-79
2023/09/05 10:47:50;;;;;;;1999.90;999.90;;;32.30;99.90;;;;;;5088414;28;19908;-73
2023/09/05 10:50:20;;;;;;;1999.90;999.90;;;32.30;99.90;;;;;;5080876;28;20047;-78
2023/09/05 10:53:11;;;;;;;1999.90;999.90;;;32.40;99.90;;;;;;5073397;28;20024;-73
2023/09/05 10:55:44;;;;;;;1999.90;999.90;;;32.40;99.90;;;;;;5066601;28;20755;-78
2023/09/05 10:58:47;;;;;;;1999.90;999.90;;;32.10;99.90;;;;;;5065634;28;20025;-78
2023/09/05 11:01:31;;;;;;;1999.90;999.90;;;31.90;99.90;;;;;;5069202;28;20031;-78
2023/09/05 11:04:00;;;;;;;1999.90;999.90;;;32.20;99.90;;;;;;5071461;28;20491;-73
2023/09/05 11:06:25;;;;;;;1999.90;999.90;;;32.10;99.90;;;;;;5069929;28;20036;-73
2023/09/05 11:08:59;;;;;;;1999.90;999.90;;;32.30;99.90;;;;;;5070101;28;20093;-78
2023/09/05 11:11:24;;;;;;;1999.90;999.90;;;32.30;99.90;;;;;;5080157;28;20029;-72
2023/09/05 11:13:50;;;;;;;1999.90;999.90;;;32.30;99.90;;;;;;5068017;28;20492;-72
2023/09/05 11:16:16;;;;;;;1999.90;999.90;;;32.50;99.90;;;;;;5067394;28;20020;-78
2023/09/05 11:18:47;;;;;;;1999.90;999.90;;;32.50;99.90;;;;;;5070194;28;20089;-77
2023/09/05 11:21:23;;;;;;;1999.90;999.90;;;31.90;99.90;;;;;;5070735;28;20365;-78
2023/09/05 11:23:54;;;;;;;1999.90;999.90;;;31.80;99.90;;;;;;5082182;28;20036;-73
2023/09/05 11:26:21;;;;;;;1999.90;999.90;;;32.10;99.90;;;;;;5089112;28;20127;-73
2023/09/05 11:28:48;;;;;;;1999.90;999.90;;;32.10;99.90;;;;;;5077494;28;20028;-78
2023/09/05 11:31:15;;;;;;;1999.90;999.90;;;32.30;99.90;;;;;;5082667;28;20024;-78
2023/09/05 11:33:41;;;;;;;1999.90;999.90;;;32.40;99.90;;;;;;5086150;28;20081;-79
2023/09/05 11:36:07;;;;;;;1999.90;999.90;;;32.50;99.70;;;;;;5091594;28;20017;-79
2023/09/05 11:39:02;;;;;;;1999.90;999.90;;;32.40;99.90;;;;;;5074119;28;20036;-79
2023/09/05 11:41:39;;;;;;;1999.90;999.90;;;32.30;99.90;;;;;;5043711;28;20033;-78
2023/09/05 11:44:06;;;;;;;1999.90;999.90;;;32.30;99.90;;;;;;5068529;28;20453;-79
2023/09/05 11:46:34;;;;;;;1999.90;999.90;;;32.40;99.90;;;;;;5075520;28;20028;-79
2023/09/05 11:49:01;;;;;;;1999.90;999.90;;;32.50;99.50;;;;;;5062516;28;20375;-79
2023/09/05 11:51:27;;;;;;;1999.90;999.90;;;32.50;99.80;;;;;;5081839;28;20071;-73
2023/09/05 11:53:53;;;;;;;1999.90;999.90;;;32.70;98.50;;;;;;5082713;28;20028;-74
2023/09/05 11:56:19;;;;;;;1999.90;999.90;;;32.50;98.50;;;;;;5072524;28;20055;-79
2023/09/05 11:58:45;;;;;;;1999.90;999.90;;;32.20;97.40;;;;;;5072253;28;20039;-79
2023/09/05 12:01:11;;;;;;;1999.90;999.90;;;32.10;97.80;;;;;;5062231;28;20095;-79